Flight Track Log - Related Links

Times and Time Zones

All times are in EDT time to prevent confusion due to time zone crossing. See the N672DS flight status page for this flight to view local times or setup timezone preferences in your user account.

Time Position Orientation Groundspeed Altitude Reporting Facility
EDT Latitude Longitude Course Direction KTS MPH feet Rate Location/Type
Fri 08:37:00 PM 40.0229 -76.0742 241° Southwest  Level FlightAware Approximate
Fri 08:38:00 PM 40.0103 -76.1032 241° Southwest  Level FlightAware Approximate
Fri 08:39:00 PM 39.9977 -76.1322 241° Southwest  Level FlightAware Approximate
Fri 08:40:00 PM 39.9852 -76.1612 241° Southwest  Level FlightAware Approximate
Fri 08:41:00 PM 39.9726 -76.1902 240° Southwest  Level FlightAware Approximate
Fri 08:42:00 PM 39.9600 -76.2192 240° Southwest  Level FlightAware Approximate
Fri 08:43:00 PM 39.9474 -76.2482 240° Southwest  Level FlightAware Approximate
Fri 08:44:00 PM 39.9348 -76.2772 240° Southwest  Level FlightAware Approximate
Fri 08:45:00 PM 39.9222 -76.3061 240° Southwest  Level FlightAware Approximate
Fri 08:46:00 PM 39.9096 -76.3351 240° Southwest  Level FlightAware Approximate
Fri 08:47:00 PM 39.8970 -76.3640 240° Southwest  Level FlightAware Approximate
Fri 08:48:00 PM 39.8843 -76.3929 240° Southwest  Level FlightAware Approximate
Fri 08:49:00 PM 39.8717 -76.4219 240° Southwest  Level FlightAware Approximate
Fri 08:50:00 PM 39.8587 -76.4505 239° Southwest  Level FlightAware Approximate
Fri 08:51:00 PM 39.8456 -76.4790 239° Southwest  Level FlightAware Approximate
Fri 08:52:00 PM 39.8324 -76.5075 239° Southwest  Level FlightAware Approximate
Fri 08:53:00 PM 39.8193 -76.5360 239° Southwest  Level FlightAware Approximate
Fri 08:54:00 PM 39.8061 -76.5645 239° Southwest  Level FlightAware Approximate
Fri 08:55:00 PM 39.7929 -76.5930 239° Southwest  Level FlightAware Approximate
Fri 08:56:00 PM 39.7797 -76.6214 239° Southwest  Level FlightAware Approximate
Fri 08:57:00 PM 39.7665 -76.6499 239° Southwest  Level FlightAware Approximate
Fri 08:58:00 PM 39.7533 -76.6783 239° Southwest  Level FlightAware Approximate
Fri 08:59:00 PM 39.7401 -76.7067 239° Southwest  Level FlightAware Approximate
Fri 09:00:00 PM 39.7269 -76.7352 239° Southwest  Level FlightAware Approximate
Fri 09:01:00 PM 39.7137 -76.7635 239° Southwest  Level FlightAware Approximate
Fri 09:02:00 PM 39.7005 -76.7919 239° Southwest  Level FlightAware Approximate
Fri 09:03:00 PM 39.6872 -76.8203 239° Southwest  Level FlightAware Approximate
Fri 09:04:00 PM 39.6740 -76.8487 239° Southwest  Level FlightAware Approximate
Fri 09:05:00 PM 39.6607 -76.8771 239° Southwest  Level FlightAware Approximate
Fri 09:06:00 PM 39.6461 -76.9039 218° Southwest  Level FlightAware Approximate
Fri 09:07:00 PM 39.6282 -76.9269 237° Southwest  Level FlightAware Approximate
Fri 09:08:00 PM 39.6150 -76.9551 247° West  Level FlightAware Approximate
Fri 09:09:00 PM 39.6048 -76.9855 247° West  Level FlightAware Approximate
Fri 09:10:00 PM 39.6000 -77.0000 247° West  Level FlightAware Approximate
Fri 09:11:00 PM 39.6083 -77.0077 North  Level Estimated
Fri 09:12:00 PM 39.6083 -77.0077 247° West  Level Estimated
Fri 09:13:00 PM 39.6083 -77.0077 144° Southeast  Level Estimated
Fri 09:14:00 PM 39.6083 -77.0077 247° West  Level Estimated
Fri 09:15:00 PM 39.6083 -77.0077 144° Southeast  Level Estimated
Fri 09:16:00 PM 39.6083 -77.0077 247° West  Level Estimated
Fri 09:17:00 PM 39.6083 -77.0077 144° Southeast  Level Estimated
Fri 09:18:00 PM 39.6083 -77.0077 247° West  Level Estimated
Fri 09:19:00 PM 39.6083 -77.0077 144° Southeast  Level Estimated
Fri 09:20:00 PM 39.6083 -77.0077 247° West  Level Estimated
Fri 09:21:00 PM 39.6083 -77.0077 144° Southeast  Level Estimated
Fri 09:22:00 PM 39.6083 -77.0077 247° West  Level Estimated
Fri 09:23:00 PM 39.6083 -77.0077 144° Southeast  Level Estimated
Fri 09:24:00 PM 39.6083 -77.0077 247° West  Level Estimated
Fri 09:25:00 PM 39.6083 -77.0077 144° Southeast  Level Estimated

Login

Don't have an account? Register now (free) for customized features, flight alerts, and more!